createdAt,value
2023-11-25T00:00:04.664Z,56.250000
2023-11-25T00:01:00.999Z,56.250000
2023-11-25T00:02:01.092Z,56.250000
2023-11-25T00:03:01.013Z,56.250000
2023-11-25T00:04:01.142Z,45.000000
2023-11-25T00:05:06.058Z,45.000000
2023-11-25T00:06:01.077Z,45.000000
2023-11-25T00:07:01.030Z,33.750000
2023-11-25T00:08:01.105Z,33.750000
2023-11-25T00:09:01.038Z,33.750000
2023-11-25T00:10:04.154Z,33.750000
2023-11-25T00:11:01.005Z,33.750000
2023-11-25T00:12:01.116Z,33.750000
2023-11-25T00:13:01.091Z,33.750000
2023-11-25T00:14:01.205Z,56.250000
2023-11-25T00:15:03.558Z,56.250000
2023-11-25T00:16:01.314Z,56.250000
2023-11-25T00:17:01.107Z,45.000000
2023-11-25T00:18:01.241Z,45.000000
2023-11-25T00:19:01.541Z,33.750000
2023-11-25T00:20:04.171Z,33.750000
2023-11-25T00:21:01.109Z,33.750000
2023-11-25T00:22:01.208Z,33.750000
2023-11-25T00:23:01.111Z,33.750000
2023-11-25T00:24:03.049Z,33.750000
2023-11-25T00:25:03.711Z,33.750000
2023-11-25T00:26:01.217Z,33.750000
2023-11-25T00:27:01.171Z,22.500000
2023-11-25T00:28:01.275Z,22.500000
2023-11-25T00:29:01.153Z,45.000000
2023-11-25T00:30:04.538Z,45.000000
2023-11-25T00:31:00.211Z,45.000000
2023-11-25T00:32:00.270Z,78.750000
2023-11-25T00:33:00.264Z,78.750000
2023-11-25T00:34:00.306Z,56.250000
2023-11-25T00:35:02.694Z,56.250000
2023-11-25T00:36:00.310Z,56.250000
2023-11-25T00:37:02.596Z,33.750000
2023-11-25T00:38:00.276Z,33.750000
2023-11-25T00:39:00.276Z,22.500000
2023-11-25T00:40:03.221Z,22.500000
2023-11-25T00:41:00.255Z,22.500000
2023-11-25T00:42:00.370Z,33.750000
2023-11-25T00:43:00.281Z,33.750000
2023-11-25T00:44:00.383Z,45.000000
2023-11-25T00:45:02.821Z,45.000000
2023-11-25T00:46:00.402Z,45.000000
2023-11-25T00:47:00.438Z,45.000000
2023-11-25T00:48:00.524Z,45.000000
2023-11-25T00:49:00.308Z,45.000000
2023-11-25T00:50:03.949Z,56.250000
2023-11-25T00:51:00.319Z,56.250000
2023-11-25T00:52:00.401Z,45.000000
2023-11-25T00:53:00.327Z,45.000000
2023-11-25T00:54:00.468Z,45.000000
2023-11-25T00:55:03.117Z,33.750000
2023-11-25T00:56:00.412Z,33.750000
2023-11-25T00:57:00.378Z,33.750000
2023-11-25T00:58:00.444Z,33.750000
2023-11-25T00:59:00.361Z,33.750000
2023-11-25T01:00:03.550Z,33.750000
2023-11-25T01:01:00.396Z,33.750000
2023-11-25T01:02:00.535Z,33.750000
2023-11-25T01:03:00.468Z,33.750000
2023-11-25T01:04:00.611Z,33.750000
2023-11-25T01:05:02.915Z,22.500000
2023-11-25T01:06:00.554Z,22.500000
2023-11-25T01:07:00.457Z,22.500000
2023-11-25T01:08:00.508Z,22.500000
2023-11-25T01:09:00.509Z,22.500000
2023-11-25T01:10:03.414Z,11.250000
2023-11-25T01:11:00.482Z,11.250000
2023-11-25T01:12:00.630Z,11.250000
2023-11-25T01:13:00.468Z,22.500000
2023-11-25T01:14:00.598Z,22.500000
2023-11-25T01:15:03.039Z,11.250000
2023-11-25T01:16:00.623Z,11.250000
2023-11-25T01:17:00.671Z,11.250000
2023-11-25T01:18:00.665Z,11.250000
2023-11-25T01:19:00.566Z,11.250000
2023-11-25T01:20:03.370Z,11.250000
2023-11-25T01:21:00.605Z,11.250000
2023-11-25T01:22:00.644Z,0.000000
2023-11-25T01:23:00.604Z,0.000000
2023-11-25T01:24:00.686Z,0.000000
2023-11-25T01:25:03.282Z,0.000000
2023-11-25T01:26:00.705Z,0.000000
2023-11-25T01:27:00.624Z,11.250000
2023-11-25T01:28:00.685Z,11.250000
2023-11-25T01:29:00.608Z,11.250000
2023-11-25T01:30:03.892Z,22.500000
2023-11-25T01:31:00.672Z,22.500000
2023-11-25T01:32:00.757Z,22.500000
2023-11-25T01:33:00.684Z,11.250000
2023-11-25T01:34:00.745Z,11.250000
2023-11-25T01:35:03.200Z,0.000000
2023-11-25T01:36:00.800Z,0.000000
2023-11-25T01:37:00.682Z,0.000000
2023-11-25T01:38:00.762Z,0.000000
2023-11-25T01:39:00.717Z,0.000000
2023-11-25T01:40:04.192Z,11.250000
2023-11-25T01:41:03.135Z,11.250000
2023-11-25T01:42:00.812Z,22.500000
2023-11-25T01:43:00.788Z,22.500000
2023-11-25T01:44:00.802Z,22.500000
2023-11-25T01:45:03.979Z,78.750000
2023-11-25T01:46:00.830Z,78.750000
2023-11-25T01:47:00.776Z,78.750000
2023-11-25T01:48:00.953Z,78.750000
2023-11-25T01:49:00.762Z,78.750000
2023-11-25T01:50:03.614Z,45.000000
2023-11-25T01:51:00.813Z,45.000000
2023-11-25T01:52:00.854Z,22.500000
2023-11-25T01:53:00.784Z,22.500000
2023-11-25T01:54:00.975Z,22.500000
2023-11-25T01:55:03.737Z,22.500000
2023-11-25T01:56:00.875Z,22.500000
2023-11-25T01:57:00.826Z,22.500000
2023-11-25T01:58:00.892Z,22.500000
2023-11-25T01:59:00.822Z,22.500000
2023-11-25T02:00:03.882Z,22.500000
2023-11-25T02:01:00.904Z,22.500000
2023-11-25T02:02:01.160Z,45.000000
2023-11-25T02:03:01.038Z,45.000000
2023-11-25T02:04:00.999Z,45.000000
2023-11-25T02:05:03.658Z,33.750000
2023-11-25T02:06:01.025Z,33.750000
2023-11-25T02:07:00.904Z,33.750000
2023-11-25T02:08:01.031Z,56.250000
2023-11-25T02:09:00.956Z,56.250000
2023-11-25T02:10:03.956Z,56.250000
2023-11-25T02:11:00.975Z,56.250000
2023-11-25T02:12:01.194Z,56.250000
2023-11-25T02:13:00.980Z,33.750000
2023-11-25T02:14:01.060Z,33.750000
2023-11-25T02:15:03.845Z,33.750000
2023-11-25T02:16:01.065Z,33.750000
2023-11-25T02:17:01.573Z,33.750000
2023-11-25T02:18:01.145Z,45.000000
2023-11-25T02:19:01.031Z,45.000000
2023-11-25T02:20:03.940Z,45.000000
2023-11-25T02:21:01.053Z,56.250000
2023-11-25T02:22:01.096Z,56.250000
2023-11-25T02:23:01.072Z,45.000000
2023-11-25T02:24:01.168Z,45.000000
2023-11-25T02:25:03.630Z,78.750000
2023-11-25T02:26:03.328Z,78.750000
2023-11-25T02:27:01.155Z,78.750000
2023-11-25T02:28:01.207Z,78.750000
2023-11-25T02:29:01.083Z,45.000000
2023-11-25T02:30:04.331Z,45.000000
2023-11-25T02:31:01.117Z,56.250000
2023-11-25T02:32:01.399Z,56.250000
2023-11-25T02:33:01.230Z,56.250000
2023-11-25T02:34:03.002Z,67.500000
2023-11-25T02:35:03.688Z,67.500000
2023-11-25T02:36:01.259Z,33.750000
2023-11-25T02:37:01.174Z,33.750000
2023-11-25T02:38:01.218Z,22.500000
2023-11-25T02:39:02.851Z,22.500000
2023-11-25T02:40:04.247Z,22.500000
2023-11-25T02:41:00.281Z,33.750000
2023-11-25T02:42:00.314Z,33.750000
2023-11-25T02:43:00.236Z,33.750000
2023-11-25T02:44:00.662Z,45.000000
2023-11-25T02:45:02.928Z,45.000000
2023-11-25T02:46:00.336Z,45.000000
2023-11-25T02:47:00.313Z,45.000000
2023-11-25T02:48:00.449Z,33.750000
2023-11-25T02:49:00.285Z,33.750000
2023-11-25T02:50:03.324Z,33.750000
2023-11-25T02:51:00.320Z,33.750000
2023-11-25T02:52:00.451Z,33.750000
2023-11-25T02:53:00.314Z,33.750000
2023-11-25T02:54:00.391Z,33.750000
2023-11-25T02:55:02.872Z,33.750000
2023-11-25T02:56:00.372Z,33.750000
2023-11-25T02:57:00.363Z,56.250000
2023-11-25T02:58:00.414Z,56.250000
2023-11-25T02:59:00.358Z,45.000000
2023-11-25T03:00:03.747Z,45.000000
2023-11-25T03:01:00.399Z,33.750000
2023-11-25T03:02:00.677Z,33.750000
2023-11-25T03:03:00.499Z,33.750000
2023-11-25T03:04:00.541Z,33.750000
2023-11-25T03:05:02.902Z,33.750000
2023-11-25T03:06:00.475Z,22.500000
2023-11-25T03:07:00.453Z,22.500000
2023-11-25T03:08:00.504Z,22.500000
2023-11-25T03:09:00.475Z,56.250000
2023-11-25T03:10:03.369Z,56.250000
2023-11-25T03:11:00.462Z,67.500000
2023-11-25T03:12:00.555Z,67.500000
2023-11-25T03:13:00.485Z,67.500000
2023-11-25T03:14:00.529Z,22.500000
2023-11-25T03:15:02.997Z,22.500000
2023-11-25T03:16:00.639Z,22.500000
2023-11-25T03:17:00.590Z,22.500000
2023-11-25T03:18:00.630Z,22.500000
2023-11-25T03:19:00.549Z,33.750000
2023-11-25T03:20:03.563Z,33.750000
2023-11-25T03:21:00.533Z,33.750000
2023-11-25T03:22:00.652Z,33.750000
2023-11-25T03:23:00.567Z,11.250000
2023-11-25T03:24:00.742Z,11.250000
2023-11-25T03:25:03.035Z,11.250000
2023-11-25T03:26:00.636Z,11.250000
2023-11-25T03:27:00.602Z,11.250000
2023-11-25T03:28:00.696Z,11.250000
2023-11-25T03:29:00.592Z,11.250000
2023-11-25T03:30:03.563Z,11.250000
2023-11-25T03:31:00.623Z,11.250000
2023-11-25T03:32:00.813Z,11.250000
2023-11-25T03:33:00.664Z,11.250000
2023-11-25T03:34:00.700Z,11.250000
2023-11-25T03:35:04.472Z,11.250000
2023-11-25T03:36:00.753Z,11.250000
2023-11-25T03:37:00.676Z,11.250000
2023-11-25T03:38:00.786Z,11.250000
2023-11-25T03:39:00.657Z,33.750000
2023-11-25T03:40:35.843Z,33.750000
2023-11-25T03:41:00.698Z,67.500000
2023-11-25T03:42:02.972Z,67.500000
2023-11-25T03:43:00.689Z,67.500000
2023-11-25T03:44:00.792Z,33.750000
2023-11-25T03:45:03.355Z,33.750000
2023-11-25T03:46:00.853Z,33.750000
2023-11-25T03:47:00.892Z,22.500000
2023-11-25T03:48:00.977Z,22.500000
2023-11-25T03:49:00.759Z,45.000000
2023-11-25T03:50:03.647Z,45.000000
2023-11-25T03:51:00.769Z,45.000000
2023-11-25T03:52:00.868Z,22.500000
2023-11-25T03:53:00.805Z,22.500000
2023-11-25T03:54:00.898Z,56.250000
2023-11-25T03:55:03.322Z,56.250000
2023-11-25T03:56:01.040Z,56.250000
2023-11-25T03:57:00.835Z,56.250000
2023-11-25T03:58:00.972Z,56.250000
2023-11-25T03:59:00.851Z,33.750000
2023-11-25T04:00:03.776Z,33.750000
2023-11-25T04:01:00.878Z,33.750000
2023-11-25T04:02:01.103Z,22.500000
2023-11-25T04:03:01.002Z,22.500000
2023-11-25T04:04:01.031Z,33.750000
2023-11-25T04:05:03.428Z,33.750000
2023-11-25T04:06:01.006Z,33.750000
2023-11-25T04:07:00.929Z,33.750000
2023-11-25T04:08:01.005Z,33.750000
2023-11-25T04:09:00.962Z,33.750000
2023-11-25T04:10:04.012Z,56.250000
2023-11-25T04:11:00.978Z,56.250000
2023-11-25T04:12:01.057Z,45.000000
2023-11-25T04:13:00.987Z,45.000000
2023-11-25T04:14:01.047Z,45.000000
2023-11-25T04:15:03.485Z,33.750000
2023-11-25T04:16:01.115Z,33.750000
2023-11-25T04:17:01.079Z,22.500000
2023-11-25T04:18:01.142Z,22.500000
2023-11-25T04:19:01.037Z,11.250000
2023-11-25T04:20:04.604Z,11.250000
2023-11-25T04:21:01.087Z,11.250000
2023-11-25T04:22:01.113Z,56.250000
2023-11-25T04:23:01.055Z,56.250000
2023-11-25T04:24:01.146Z,56.250000
2023-11-25T04:25:03.473Z,22.500000
2023-11-25T04:26:01.181Z,22.500000
2023-11-25T04:27:01.080Z,33.750000
2023-11-25T04:28:01.182Z,33.750000
2023-11-25T04:29:01.075Z,56.250000
2023-11-25T04:30:05.879Z,56.250000
2023-11-25T04:31:01.108Z,56.250000
2023-11-25T04:32:02.765Z,67.500000
2023-11-25T04:33:01.175Z,67.500000
2023-11-25T04:34:01.233Z,67.500000
2023-11-25T04:35:03.868Z,33.750000
2023-11-25T04:36:01.269Z,33.750000
2023-11-25T04:37:01.169Z,22.500000
2023-11-25T04:38:01.256Z,22.500000
2023-11-25T04:39:00.247Z,22.500000
2023-11-25T04:40:04.624Z,11.250000
2023-11-25T04:41:00.316Z,11.250000
2023-11-25T04:42:00.332Z,33.750000
2023-11-25T04:43:00.233Z,33.750000
2023-11-25T04:44:00.343Z,33.750000
2023-11-25T04:45:02.765Z,33.750000
2023-11-25T04:46:00.324Z,33.750000
2023-11-25T04:47:00.388Z,22.500000
2023-11-25T04:48:00.401Z,22.500000
2023-11-25T04:49:00.292Z,22.500000
2023-11-25T04:50:03.537Z,22.500000
2023-11-25T04:51:00.299Z,22.500000
2023-11-25T04:52:00.399Z,22.500000
2023-11-25T04:53:00.357Z,22.500000
2023-11-25T04:54:00.637Z,22.500000
2023-11-25T04:55:03.012Z,11.250000
2023-11-25T04:56:00.418Z,11.250000
2023-11-25T04:57:00.363Z,22.500000
2023-11-25T04:58:00.510Z,22.500000
2023-11-25T04:59:00.352Z,22.500000
2023-11-25T05:00:05.289Z,22.500000
2023-11-25T05:01:00.353Z,22.500000
2023-11-25T05:02:00.534Z,11.250000
2023-11-25T05:03:00.480Z,11.250000
2023-11-25T05:04:00.499Z,11.250000
2023-11-25T05:05:02.998Z,22.500000
2023-11-25T05:06:00.478Z,22.500000
2023-11-25T05:07:00.413Z,22.500000
2023-11-25T05:08:00.516Z,11.250000
2023-11-25T05:09:00.416Z,11.250000
2023-11-25T05:10:03.481Z,33.750000
2023-11-25T05:11:00.457Z,33.750000
2023-11-25T05:12:00.561Z,33.750000
2023-11-25T05:13:00.490Z,33.750000
2023-11-25T05:14:00.547Z,33.750000
2023-11-25T05:15:03.023Z,33.750000
2023-11-25T05:16:00.580Z,33.750000
2023-11-25T05:17:00.582Z,33.750000
2023-11-25T05:18:00.598Z,22.500000
2023-11-25T05:19:00.487Z,22.500000
2023-11-25T05:20:03.686Z,22.500000
2023-11-25T05:21:00.517Z,22.500000
2023-11-25T05:22:00.648Z,22.500000
2023-11-25T05:23:00.568Z,22.500000
2023-11-25T05:24:00.610Z,22.500000
2023-11-25T05:25:03.781Z,11.250000
2023-11-25T05:26:00.647Z,11.250000
2023-11-25T05:27:00.603Z,11.250000
2023-11-25T05:28:00.701Z,11.250000
2023-11-25T05:29:00.595Z,11.250000
2023-11-25T05:30:03.477Z,11.250000
2023-11-25T05:31:00.702Z,33.750000
2023-11-25T05:32:00.832Z,33.750000
2023-11-25T05:33:00.731Z,22.500000
2023-11-25T05:34:00.797Z,22.500000
2023-11-25T05:35:03.331Z,22.500000
2023-11-25T05:36:00.749Z,56.250000
2023-11-25T05:37:00.671Z,56.250000
2023-11-25T05:38:00.780Z,67.500000
2023-11-25T05:39:00.761Z,67.500000
2023-11-25T05:40:04.625Z,67.500000
2023-11-25T05:41:00.751Z,56.250000
2023-11-25T05:42:00.841Z,56.250000
2023-11-25T05:43:00.768Z,56.250000
2023-11-25T05:44:00.821Z,56.250000
2023-11-25T05:45:03.243Z,56.250000
2023-11-25T05:46:01.059Z,22.500000
2023-11-25T05:47:00.817Z,22.500000
2023-11-25T05:48:00.894Z,0.000000
2023-11-25T05:49:00.788Z,0.000000
2023-11-25T05:50:03.680Z,0.000000
2023-11-25T05:51:00.820Z,11.250000
2023-11-25T05:52:01.428Z,11.250000
2023-11-25T05:53:00.859Z,11.250000
2023-11-25T05:54:00.954Z,11.250000
2023-11-25T05:55:03.478Z,11.250000
2023-11-25T05:56:00.925Z,45.000000
2023-11-25T05:57:00.912Z,45.000000
2023-11-25T05:58:01.630Z,22.500000
2023-11-25T05:59:00.901Z,22.500000
2023-11-25T06:00:04.905Z,56.250000
2023-11-25T06:01:00.901Z,56.250000
2023-11-25T06:02:01.011Z,56.250000
2023-11-25T06:03:00.946Z,22.500000
2023-11-25T06:04:01.125Z,22.500000
2023-11-25T06:05:04.474Z,22.500000
2023-11-25T06:06:01.071Z,33.750000
2023-11-25T06:07:00.974Z,33.750000
2023-11-25T06:08:01.044Z,11.250000
2023-11-25T06:09:00.984Z,11.250000
2023-11-25T06:10:03.892Z,56.250000
2023-11-25T06:11:01.045Z,56.250000
2023-11-25T06:12:01.094Z,56.250000
2023-11-25T06:13:01.000Z,45.000000
2023-11-25T06:14:01.305Z,45.000000
2023-11-25T06:15:03.628Z,45.000000
2023-11-25T06:16:01.132Z,33.750000
2023-11-25T06:17:01.078Z,33.750000
2023-11-25T06:18:01.239Z,33.750000
2023-11-25T06:19:01.032Z,56.250000
2023-11-25T06:20:04.734Z,56.250000
2023-11-25T06:21:01.119Z,67.500000
2023-11-25T06:22:01.203Z,67.500000
2023-11-25T06:23:01.094Z,45.000000
2023-11-25T06:24:01.198Z,45.000000
2023-11-25T06:25:03.760Z,45.000000
2023-11-25T06:26:01.234Z,33.750000
2023-11-25T06:27:01.160Z,33.750000
2023-11-25T06:28:01.235Z,45.000000
2023-11-25T06:29:01.176Z,45.000000
2023-11-25T06:30:04.157Z,45.000000
2023-11-25T06:31:01.191Z,33.750000
2023-11-25T06:32:01.250Z,33.750000
2023-11-25T06:33:01.256Z,33.750000
2023-11-25T06:34:01.318Z,33.750000
2023-11-25T06:35:03.871Z,33.750000
2023-11-25T06:36:00.327Z,33.750000
2023-11-25T06:37:00.229Z,33.750000
2023-11-25T06:38:00.366Z,45.000000
2023-11-25T06:39:00.289Z,45.000000
2023-11-25T06:40:04.649Z,45.000000
2023-11-25T06:41:00.254Z,33.750000
2023-11-25T06:42:00.338Z,33.750000
2023-11-25T06:43:00.235Z,33.750000
2023-11-25T06:44:00.405Z,33.750000
2023-11-25T06:45:02.902Z,33.750000
2023-11-25T06:46:00.386Z,11.250000
2023-11-25T06:47:00.379Z,11.250000
2023-11-25T06:48:00.434Z,11.250000
2023-11-25T06:49:00.293Z,22.500000
2023-11-25T06:50:03.536Z,22.500000
2023-11-25T06:51:00.364Z,22.500000
2023-11-25T06:52:00.561Z,11.250000
2023-11-25T06:53:00.319Z,11.250000
2023-11-25T06:54:00.418Z,0.000000
2023-11-25T06:55:02.975Z,0.000000
2023-11-25T06:56:00.530Z,0.000000
2023-11-25T06:57:00.400Z,0.000000
2023-11-25T06:58:00.485Z,0.000000
2023-11-25T06:59:00.404Z,0.000000
2023-11-25T07:00:03.727Z,0.000000
2023-11-25T07:01:00.466Z,0.000000
2023-11-25T07:02:00.559Z,0.000000
2023-11-25T07:03:00.497Z,0.000000
2023-11-25T07:04:00.540Z,0.000000
2023-11-25T07:05:02.878Z,0.000000
2023-11-25T07:06:00.797Z,33.750000
2023-11-25T07:07:00.458Z,22.500000
2023-11-25T07:08:00.872Z,22.500000
2023-11-25T07:09:00.491Z,11.250000
2023-11-25T07:10:05.473Z,11.250000
2023-11-25T07:11:00.630Z,11.250000
2023-11-25T07:12:01.443Z,22.500000
2023-11-25T07:13:00.521Z,22.500000
2023-11-25T07:14:01.659Z,45.000000
2023-11-25T07:15:03.977Z,45.000000
2023-11-25T07:16:00.663Z,45.000000
2023-11-25T07:17:00.590Z,33.750000
2023-11-25T07:18:01.375Z,33.750000
2023-11-25T07:19:00.567Z,33.750000
2023-11-25T07:20:03.602Z,33.750000
2023-11-25T07:21:00.574Z,33.750000
2023-11-25T07:22:01.699Z,22.500000
2023-11-25T07:23:00.621Z,22.500000
2023-11-25T07:24:00.705Z,22.500000
2023-11-25T07:25:03.581Z,22.500000
2023-11-25T07:26:00.726Z,22.500000
2023-11-25T07:27:00.633Z,33.750000
2023-11-25T07:28:00.733Z,33.750000
2023-11-25T07:29:00.639Z,33.750000
2023-11-25T07:30:03.512Z,33.750000
2023-11-25T07:31:00.632Z,33.750000
2023-11-25T07:32:07.978Z,22.500000
2023-11-25T07:33:00.697Z,22.500000
2023-11-25T07:34:00.734Z,33.750000
2023-11-25T07:35:03.278Z,33.750000
2023-11-25T07:36:00.775Z,33.750000
2023-11-25T07:37:00.707Z,56.250000
2023-11-25T07:38:00.776Z,56.250000
2023-11-25T07:39:00.687Z,56.250000
2023-11-25T07:40:03.695Z,56.250000
2023-11-25T07:41:00.739Z,56.250000
2023-11-25T07:42:00.768Z,45.000000
2023-11-25T07:43:00.718Z,45.000000
2023-11-25T07:44:00.875Z,45.000000
2023-11-25T07:45:03.241Z,22.500000
2023-11-25T07:46:00.810Z,22.500000
2023-11-25T07:47:00.843Z,33.750000
2023-11-25T07:48:00.884Z,33.750000
2023-11-25T07:49:00.767Z,33.750000
2023-11-25T07:50:05.378Z,33.750000
2023-11-25T07:51:00.783Z,33.750000
2023-11-25T07:52:00.867Z,67.500000
2023-11-25T07:53:00.764Z,67.500000
2023-11-25T07:54:00.896Z,67.500000
2023-11-25T07:55:03.407Z,56.250000
2023-11-25T07:56:00.973Z,56.250000
2023-11-25T07:57:00.848Z,33.750000
2023-11-25T07:58:00.952Z,33.750000
2023-11-25T07:59:03.080Z,45.000000
2023-11-25T08:00:04.026Z,45.000000
2023-11-25T08:01:00.898Z,45.000000
2023-11-25T08:02:01.158Z,33.750000
2023-11-25T08:03:01.064Z,33.750000
2023-11-25T08:04:01.040Z,33.750000
2023-11-25T08:05:03.349Z,56.250000
2023-11-25T08:06:10.856Z,56.250000
2023-11-25T08:07:00.914Z,45.000000
2023-11-25T08:08:03.367Z,45.000000
2023-11-25T08:09:00.936Z,45.000000
2023-11-25T08:10:05.373Z,33.750000
2023-11-25T08:11:01.028Z,33.750000
2023-11-25T08:12:01.440Z,33.750000
2023-11-25T08:13:01.133Z,33.750000
2023-11-25T08:14:01.808Z,33.750000
2023-11-25T08:15:03.528Z,33.750000
2023-11-25T08:16:01.169Z,33.750000
2023-11-25T08:17:01.074Z,56.250000
2023-11-25T08:18:05.469Z,56.250000
2023-11-25T08:19:01.059Z,22.500000
2023-11-25T08:20:04.245Z,22.500000
2023-11-25T08:21:01.092Z,22.500000
2023-11-25T08:22:01.179Z,22.500000
2023-11-25T08:23:01.169Z,22.500000
2023-11-25T08:24:02.283Z,45.000000
2023-11-25T08:25:03.637Z,45.000000
2023-11-25T08:26:01.215Z,45.000000
2023-11-25T08:27:01.111Z,56.250000
2023-11-25T08:28:01.559Z,56.250000
2023-11-25T08:29:01.180Z,56.250000
2023-11-25T08:30:04.193Z,56.250000
2023-11-25T08:31:01.109Z,56.250000
2023-11-25T08:32:01.315Z,45.000000
2023-11-25T08:33:01.290Z,45.000000
2023-11-25T08:34:01.545Z,45.000000
2023-11-25T08:35:03.673Z,33.750000
2023-11-25T08:36:01.832Z,33.750000
2023-11-25T08:37:01.189Z,33.750000
2023-11-25T08:38:02.127Z,56.250000
2023-11-25T08:39:01.207Z,56.250000
2023-11-25T08:43:00.254Z,67.500000
2023-11-25T08:44:00.602Z,67.500000
2023-11-25T08:45:02.699Z,45.000000
2023-11-25T08:46:00.364Z,45.000000
2023-11-25T08:47:00.432Z,45.000000
2023-11-25T08:48:00.414Z,45.000000
2023-11-25T08:49:00.307Z,45.000000
2023-11-25T08:50:03.580Z,56.250000
2023-11-25T08:51:00.318Z,56.250000
2023-11-25T08:52:00.400Z,56.250000
2023-11-25T08:53:00.327Z,45.000000
2023-11-25T08:54:00.401Z,45.000000
2023-11-25T08:55:02.791Z,45.000000
2023-11-25T08:56:00.466Z,45.000000
2023-11-25T08:57:00.403Z,45.000000
2023-11-25T08:58:00.476Z,56.250000
2023-11-25T08:59:06.391Z,56.250000
2023-11-25T09:00:04.632Z,56.250000
2023-11-25T09:01:00.456Z,56.250000
2023-11-25T09:02:00.555Z,56.250000
2023-11-25T09:03:00.550Z,45.000000
2023-11-25T09:04:00.571Z,45.000000
2023-11-25T09:05:09.501Z,56.250000
2023-11-25T09:06:00.545Z,56.250000
2023-11-25T09:07:00.458Z,56.250000
2023-11-25T09:08:00.638Z,45.000000
2023-11-25T09:09:00.535Z,45.000000
2023-11-25T09:10:04.790Z,67.500000
2023-11-25T09:11:00.541Z,67.500000
2023-11-25T09:12:00.596Z,67.500000
2023-11-25T09:13:00.499Z,67.500000
2023-11-25T09:14:00.744Z,67.500000
2023-11-25T09:15:03.032Z,67.500000
2023-11-25T09:16:00.605Z,67.500000
2023-11-25T09:17:00.590Z,67.500000
2023-11-25T09:18:00.718Z,45.000000
2023-11-25T09:19:00.885Z,45.000000
2023-11-25T09:20:06.759Z,33.750000
2023-11-25T09:21:00.610Z,33.750000
2023-11-25T09:22:00.662Z,33.750000
2023-11-25T09:23:00.651Z,45.000000
2023-11-25T09:24:00.708Z,45.000000
2023-11-25T09:25:03.057Z,45.000000
2023-11-25T09:26:00.739Z,45.000000
2023-11-25T09:27:00.661Z,45.000000
2023-11-25T09:28:00.701Z,22.500000
2023-11-25T09:29:00.744Z,22.500000
2023-11-25T09:30:04.675Z,33.750000
2023-11-25T09:31:00.647Z,33.750000
2023-11-25T09:32:00.823Z,33.750000
2023-11-25T09:33:00.760Z,33.750000
2023-11-25T09:34:00.795Z,33.750000
2023-11-25T09:35:03.703Z,33.750000
2023-11-25T09:36:00.801Z,33.750000
2023-11-25T09:37:00.719Z,33.750000
2023-11-25T09:38:01.884Z,33.750000
2023-11-25T09:39:00.712Z,33.750000
2023-11-25T09:40:06.639Z,33.750000
2023-11-25T09:41:00.771Z,33.750000
2023-11-25T09:42:00.848Z,33.750000
2023-11-25T09:43:00.768Z,33.750000
2023-11-25T09:44:00.880Z,33.750000
2023-11-25T09:45:03.291Z,33.750000
2023-11-25T09:46:00.933Z,67.500000
2023-11-25T09:47:00.798Z,67.500000
2023-11-25T09:48:00.938Z,56.250000
2023-11-25T09:49:00.823Z,56.250000
2023-11-25T09:50:03.933Z,33.750000
2023-11-25T09:51:00.898Z,33.750000
2023-11-25T09:52:00.929Z,33.750000
2023-11-25T09:53:00.859Z,78.750000
2023-11-25T09:54:00.942Z,78.750000
2023-11-25T09:55:03.446Z,78.750000
2023-11-25T09:56:00.949Z,45.000000
2023-11-25T09:57:00.846Z,45.000000
2023-11-25T09:58:00.929Z,45.000000
2023-11-25T09:59:00.929Z,45.000000
2023-11-25T10:00:05.084Z,45.000000
2023-11-25T10:01:00.917Z,56.250000
2023-11-25T10:02:01.347Z,56.250000
2023-11-25T10:03:01.061Z,56.250000
2023-11-25T10:04:01.070Z,56.250000
2023-11-25T10:05:03.477Z,56.250000
2023-11-25T10:06:01.025Z,56.250000
2023-11-25T10:07:00.975Z,56.250000
2023-11-25T10:08:01.089Z,56.250000
2023-11-25T10:09:00.999Z,56.250000
2023-11-25T10:10:04.738Z,56.250000
2023-11-25T10:11:00.979Z,56.250000
2023-11-25T10:12:01.092Z,56.250000
2023-11-25T10:13:01.011Z,56.250000
2023-11-25T10:14:01.067Z,67.500000
2023-11-25T10:15:03.571Z,67.500000
2023-11-25T10:16:01.104Z,67.500000
2023-11-25T10:17:01.048Z,67.500000
2023-11-25T10:18:01.170Z,45.000000
2023-11-25T10:19:01.072Z,45.000000
2023-11-25T10:20:04.017Z,45.000000
2023-11-25T10:21:01.079Z,45.000000
2023-11-25T10:22:01.165Z,45.000000
2023-11-25T10:23:01.116Z,45.000000
2023-11-25T10:24:01.161Z,45.000000
2023-11-25T10:25:03.600Z,45.000000
2023-11-25T10:26:01.222Z,45.000000
2023-11-25T10:27:01.117Z,45.000000
2023-11-25T10:28:01.233Z,45.000000
2023-11-25T10:29:01.129Z,56.250000
2023-11-25T10:30:04.680Z,56.250000
2023-11-25T10:31:01.171Z,56.250000
2023-11-25T10:32:01.220Z,45.000000
2023-11-25T10:33:01.226Z,45.000000
2023-11-25T10:34:01.463Z,45.000000
2023-11-25T10:35:03.640Z,45.000000
2023-11-25T10:36:01.761Z,33.750000
2023-11-25T10:37:00.201Z,33.750000
2023-11-25T10:38:02.311Z,33.750000
2023-11-25T10:39:00.221Z,56.250000
2023-11-25T10:40:03.880Z,56.250000
2023-11-25T10:41:00.308Z,56.250000
2023-11-25T10:42:00.320Z,45.000000
2023-11-25T10:43:00.262Z,45.000000
2023-11-25T10:44:00.394Z,45.000000
2023-11-25T10:45:02.857Z,45.000000
2023-11-25T10:46:08.832Z,45.000000
2023-11-25T10:47:00.348Z,45.000000
2023-11-25T10:48:01.036Z,45.000000
2023-11-25T10:49:00.300Z,45.000000
2023-11-25T10:50:04.728Z,45.000000
2023-11-25T10:51:00.302Z,45.000000
2023-11-25T10:52:00.431Z,33.750000
2023-11-25T10:53:00.362Z,33.750000
2023-11-25T10:54:00.494Z,56.250000
2023-11-25T10:55:03.508Z,56.250000
2023-11-25T10:56:00.555Z,56.250000
2023-11-25T10:57:00.377Z,45.000000
2023-11-25T10:58:00.467Z,45.000000
2023-11-25T10:59:00.416Z,67.500000
2023-11-25T11:00:03.647Z,67.500000
2023-11-25T11:01:00.441Z,67.500000
2023-11-25T11:02:00.692Z,67.500000
2023-11-25T11:03:00.601Z,67.500000
2023-11-25T11:04:00.531Z,67.500000
2023-11-25T11:05:03.019Z,67.500000
2023-11-25T11:06:00.585Z,67.500000
2023-11-25T11:07:00.444Z,45.000000
2023-11-25T11:08:00.581Z,45.000000
2023-11-25T11:09:00.809Z,33.750000
2023-11-25T11:10:03.441Z,33.750000
2023-11-25T11:11:00.583Z,56.250000
2023-11-25T11:12:00.606Z,56.250000
2023-11-25T11:13:00.516Z,56.250000
2023-11-25T11:14:00.653Z,56.250000
2023-11-25T11:15:03.229Z,56.250000
2023-11-25T11:16:00.625Z,56.250000
2023-11-25T11:17:00.605Z,33.750000
2023-11-25T11:18:00.714Z,33.750000
2023-11-25T11:19:00.617Z,33.750000
2023-11-25T11:20:04.710Z,33.750000
2023-11-25T11:21:00.611Z,33.750000
2023-11-25T11:22:00.699Z,33.750000
2023-11-25T11:23:00.615Z,33.750000
2023-11-25T11:24:01.832Z,78.750000
2023-11-25T11:25:03.125Z,78.750000
2023-11-25T11:26:00.738Z,78.750000
2023-11-25T11:27:00.636Z,45.000000